Dera Bugti Weather



Dera Bugti's Current Weather

Temprature 41.062o clear sky

clear sky

Rain: 0 %

Min Temprature41.062o
Max Temprature41.062o
Humidity15
Wind Speed3.91 m/h
Sun Rise05:26:15
Sun Set19:25:50
Current Time: 26-Jun-2019 15:03:21
Lat/Lon: 29.03, 69.15




Dera Bugti's Geo Location



Dera Bugti's Weather Forecast

Time Overall Temp Min Temp Max Temp Humidity Wind Speed Rain
26-Jun-2019 (Wed)
17:00:00 few clouds 41.550 41.550 41.550 13 5.52 m/h 0 %
20:00:00 clear sky 37.850 37.847 37.850 20 6.37 m/h 0 %
23:00:00 clear sky 35.340 35.340 35.340 21 2.67 m/h 0 %
27-Jun-2019 (Thu)
02:00:00 clear sky 32.680 32.679 32.680 30 2.45 m/h 0 %
05:00:00 clear sky 30.565 30.565 30.565 45 2.16 m/h 0 %
08:00:00 clear sky 32.250 32.250 32.250 42 2.87 m/h 0 %
11:00:00 clear sky 38.174 38.174 38.174 20 3.72 m/h 0 %
14:00:00 clear sky 41.750 41.750 41.750 13 4.64 m/h 0 %
17:00:00 clear sky 42.380 42.380 42.380 10 4.89 m/h 0 %
20:00:00 clear sky 38.794 38.794 38.794 12 4.1 m/h 0 %
23:00:00 clear sky 33.735 33.735 33.735 37 8.68 m/h 0 %
28-Jun-2019 (Fri)
02:00:00 clear sky 29.828 29.828 29.828 53 4.38 m/h 0 %
05:00:00 clear sky 28.028 28.028 28.028 59 4.3 m/h 0 %
08:00:00 clear sky 29.349 29.349 29.349 55 1.87 m/h 0 %
11:00:00 clear sky 36.525 36.525 36.525 25 2.07 m/h 0 %
14:00:00 clear sky 41.031 41.031 41.031 15 4.52 m/h 0 %
17:00:00 clear sky 41.550 41.550 41.550 13 4.69 m/h 0 %
20:00:00 clear sky 38.350 38.350 38.350 17 4.63 m/h 0 %
23:00:00 clear sky 33.672 33.672 33.672 36 5.28 m/h 0 %
29-Jun-2019 (Sat)
02:00:00 clear sky 30.172 30.172 30.172 54 1.16 m/h 0 %
05:00:00 clear sky 28.659 28.659 28.659 59 3.77 m/h 0 %
08:00:00 clear sky 29.457 29.457 29.457 58 2.28 m/h 0 %
11:00:00 clear sky 36.650 36.650 36.650 29 2.09 m/h 0 %
14:00:00 clear sky 40.950 40.950 40.950 19 4.83 m/h 0 %
17:00:00 clear sky 41.891 41.891 41.891 14 4.62 m/h 0 %
20:00:00 clear sky 38.350 38.350 38.350 17 3.71 m/h 0 %
23:00:00 clear sky 35.950 35.950 35.950 21 6.93 m/h 0 %
30-Jun-2019 (Sun)
02:00:00 clear sky 30.776 30.776 30.776 54 3.25 m/h 0 %
05:00:00 clear sky 28.482 28.482 28.482 62 3.97 m/h 0 %
08:00:00 clear sky 29.832 29.832 29.832 56 4.14 m/h 0 %
11:00:00 clear sky 35.518 35.518 35.518 37 4.94 m/h 0 %
14:00:00 clear sky 40.208 40.208 40.208 23 5.23 m/h 0 %
17:00:00 clear sky 41.950 41.950 41.950 17 4.84 m/h 0 %
20:00:00 clear sky 38.750 38.750 38.750 20 4.95 m/h 0 %
23:00:00 clear sky 35.950 35.950 35.950 26 6.07 m/h 0 %
01-Jul-2019 (Mon)
02:00:00 clear sky 31.050 31.050 31.050 54 2.08 m/h 0 %
05:00:00 clear sky 28.635 28.635 28.635 64 3.49 m/h 0 %
08:00:00 clear sky 29.050 29.050 29.050 61 3.62 m/h 0 %
11:00:00 clear sky 35.650 35.650 35.650 33 2.01 m/h 0 %
14:00:00 clear sky 40.550 40.550 40.550 21 3.79 m/h 0 %

Famous Cities (60)